Time;durP1;ratioP1;P1;durP2;ratioP2;P2;SDS_P1;SDS_P2;PMS_P1;PMS_P2;Temp;Humidity;BMP_temperature;BMP_pressure;BME280_temperature;BME280_humidity;BME280_pressure;Samples;Min_cycle;Max_cycle;Signal;HPM_P1;HPM_P2
2021/06/12 00:01:39;;;;;;;1.33;0.50;;;;;;;;;;4914401;29;20051;-57
2021/06/12 00:04:05;;;;;;;3.78;0.60;;;;;;;;;;4912426;29;20051;-60
2021/06/12 00:06:31;;;;;;;2.58;0.70;;;;;;;;;;4908946;29;20449;-58
2021/06/12 00:08:57;;;;;;;1.42;0.50;;;;;;;;;;4910508;29;20050;-58
2021/06/12 00:11:23;;;;;;;1.63;0.40;;;;;;;;;;4909096;29;20055;-60
2021/06/12 00:13:48;;;;;;;3.50;0.68;;;;;;;;;;4909484;29;20059;-56
2021/06/12 00:16:14;;;;;;;1.63;0.40;;;;;;;;;;4907995;29;20042;-58
2021/06/12 00:18:40;;;;;;;2.72;0.50;;;;;;;;;;4893659;29;20044;-58
2021/06/12 00:21:06;;;;;;;2.50;0.70;;;;;;;;;;4909174;29;20228;-58
2021/06/12 00:23:32;;;;;;;4.30;0.60;;;;;;;;;;4909524;29;20047;-58
2021/06/12 00:25:58;;;;;;;3.00;0.40;;;;;;;;;;4908035;29;20127;-57
2021/06/12 00:28:24;;;;;;;2.40;0.70;;;;;;;;;;4909918;29;20048;-57
2021/06/12 00:30:49;;;;;;;3.10;0.50;;;;;;;;;;4909934;29;20548;-58
2021/06/12 00:33:16;;;;;;;2.63;0.52;;;;;;;;;;4910353;29;20047;-59
2021/06/12 00:35:42;;;;;;;13.63;1.10;;;;;;;;;;4909274;29;20051;-58
2021/06/12 00:38:09;;;;;;;6.88;0.75;;;;;;;;;;4910049;29;20111;-58
2021/06/12 00:40:35;;;;;;;4.93;0.63;;;;;;;;;;4908396;29;20121;-58
2021/06/12 00:43:01;;;;;;;4.40;0.50;;;;;;;;;;4897307;29;20256;-59
2021/06/12 00:45:28;;;;;;;4.47;0.75;;;;;;;;;;4911231;29;20079;-57
2021/06/12 00:47:55;;;;;;;4.22;0.70;;;;;;;;;;4912506;29;20032;-58
2021/06/12 00:50:22;;;;;;;9.18;0.77;;;;;;;;;;4910268;29;20127;-57
2021/06/12 00:52:48;;;;;;;4.72;0.90;;;;;;;;;;4912857;29;20107;-58
2021/06/12 00:55:15;;;;;;;5.97;0.50;;;;;;;;;;4911394;29;20039;-57
2021/06/12 00:57:41;;;;;;;7.55;0.95;;;;;;;;;;4912779;29;20051;-56
2021/06/12 01:00:09;;;;;;;2.97;0.52;;;;;;;;;;4911887;29;20040;-58
2021/06/12 01:02:36;;;;;;;1.75;0.50;;;;;;;;;;4912846;29;20051;-58
2021/06/12 01:05:02;;;;;;;4.82;0.52;;;;;;;;;;4911132;29;20192;-58
2021/06/12 01:07:28;;;;;;;1.63;0.80;;;;;;;;;;4893656;29;20046;-57
2021/06/12 01:09:54;;;;;;;2.80;0.50;;;;;;;;;;4913293;29;20044;-53
2021/06/12 01:12:26;;;;;;;2.33;0.40;;;;;;;;;;4911469;29;20047;-56
2021/06/12 01:14:54;;;;;;;3.58;0.60;;;;;;;;;;4909577;29;20048;-56
2021/06/12 01:17:33;;;;;;;5.32;0.70;;;;;;;;;;4911070;29;20048;-56
2021/06/12 01:20:02;;;;;;;2.70;0.50;;;;;;;;;;4912171;29;20047;-57
2021/06/12 01:22:35;;;;;;;3.97;0.43;;;;;;;;;;4904399;29;20040;-56
2021/06/12 01:25:09;;;;;;;3.85;0.50;;;;;;;;;;4913942;29;20059;-56
2021/06/12 01:27:34;;;;;;;1.73;0.50;;;;;;;;;;4912160;29;20052;-56
2021/06/12 01:30:03;;;;;;;2.45;0.50;;;;;;;;;;4912699;29;20052;-56
2021/06/12 01:32:31;;;;;;;2.25;0.43;;;;;;;;;;4911082;29;20074;-56
2021/06/12 01:34:58;;;;;;;2.55;0.70;;;;;;;;;;4897569;29;20357;-55
2021/06/12 01:37:25;;;;;;;1.90;0.50;;;;;;;;;;4910481;29;20039;-56
2021/06/12 01:39:50;;;;;;;4.65;0.50;;;;;;;;;;4909219;29;20066;-56
2021/06/12 01:42:17;;;;;;;2.35;0.50;;;;;;;;;;4910595;29;20040;-56
2021/06/12 01:44:43;;;;;;;2.28;0.60;;;;;;;;;;4913228;29;20040;-56
2021/06/12 01:47:09;;;;;;;2.47;0.63;;;;;;;;;;4914348;29;20052;-56
2021/06/12 01:49:36;;;;;;;1.88;0.40;;;;;;;;;;4913186;29;20051;-57
2021/06/12 01:52:02;;;;;;;3.63;0.50;;;;;;;;;;4899261;29;20048;-55
2021/06/12 01:54:28;;;;;;;2.20;0.52;;;;;;;;;;4913333;29;20449;-56
2021/06/12 01:56:54;;;;;;;4.90;0.65;;;;;;;;;;4914882;29;20035;-55
2021/06/12 01:59:21;;;;;;;3.13;0.60;;;;;;;;;;4895140;29;20126;-53
2021/06/12 02:01:49;;;;;;;2.35;0.68;;;;;;;;;;4913688;29;20485;-57
2021/06/12 02:04:17;;;;;;;2.25;0.57;;;;;;;;;;4913925;29;20178;-56
2021/06/12 02:06:44;;;;;;;2.70;0.50;;;;;;;;;;4910799;29;20409;-57
2021/06/12 02:09:10;;;;;;;6.63;0.68;;;;;;;;;;4882845;29;20068;-56
2021/06/12 02:11:37;;;;;;;2.13;0.45;;;;;;;;;;4890321;29;20359;-57
2021/06/12 02:14:03;;;;;;;1.55;0.50;;;;;;;;;;4878285;29;20067;-57
2021/06/12 02:16:29;;;;;;;2.50;0.50;;;;;;;;;;4893552;29;20067;-56
2021/06/12 02:18:55;;;;;;;2.13;0.45;;;;;;;;;;4876182;29;20667;-57
2021/06/12 02:21:21;;;;;;;2.45;0.60;;;;;;;;;;4893975;29;20044;-57
2021/06/12 02:23:49;;;;;;;3.00;0.50;;;;;;;;;;4895435;29;20048;-56
2021/06/12 02:26:16;;;;;;;3.10;0.70;;;;;;;;;;4895184;29;20146;-56
2021/06/12 02:28:42;;;;;;;4.30;0.60;;;;;;;;;;4875856;29;20548;-56
2021/06/12 02:31:10;;;;;;;2.85;0.88;;;;;;;;;;4895561;29;20827;-57
2021/06/12 02:33:36;;;;;;;3.15;1.00;;;;;;;;;;4893768;29;20050;-55
2021/06/12 02:36:02;;;;;;;3.78;0.60;;;;;;;;;;4891227;29;20352;-56
2021/06/12 02:38:29;;;;;;;2.70;0.77;;;;;;;;;;4892964;29;20059;-57
2021/06/12 02:40:55;;;;;;;5.57;0.68;;;;;;;;;;4878732;29;20412;-55
2021/06/12 02:43:22;;;;;;;3.35;0.95;;;;;;;;;;4887888;29;20235;-56
2021/06/12 02:45:49;;;;;;;1.92;0.55;;;;;;;;;;4895681;29;20626;-54
2021/06/12 02:48:16;;;;;;;3.17;0.80;;;;;;;;;;4894393;29;20152;-53
2021/06/12 02:50:43;;;;;;;2.25;0.60;;;;;;;;;;4899377;29;20044;-52
2021/06/12 02:53:10;;;;;;;4.40;0.70;;;;;;;;;;4894679;29;20043;-53
2021/06/12 02:55:40;;;;;;;1.90;0.50;;;;;;;;;;4893916;29;20517;-55
2021/06/12 02:58:08;;;;;;;2.65;0.52;;;;;;;;;;4878951;29;20409;-55
2021/06/12 03:00:35;;;;;;;1.83;0.57;;;;;;;;;;4905572;29;20521;-56
2021/06/12 03:03:01;;;;;;;2.53;0.52;;;;;;;;;;4893915;29;20150;-56
2021/06/12 03:05:28;;;;;;;3.00;0.63;;;;;;;;;;4864636;29;21029;-56
2021/06/12 03:07:56;;;;;;;2.13;0.60;;;;;;;;;;4890547;29;20378;-56
2021/06/12 03:10:22;;;;;;;4.70;1.20;;;;;;;;;;4894529;29;20651;-57
2021/06/12 03:12:48;;;;;;;5.68;0.77;;;;;;;;;;4895037;29;20044;-56
2021/06/12 03:15:15;;;;;;;2.95;0.70;;;;;;;;;;4894426;29;20044;-55
2021/06/12 03:17:44;;;;;;;2.70;0.60;;;;;;;;;;4894865;29;20535;-56
2021/06/12 03:20:11;;;;;;;5.70;0.70;;;;;;;;;;4895606;29;20511;-56
2021/06/12 03:22:37;;;;;;;4.47;0.70;;;;;;;;;;4893287;29;20039;-56
2021/06/12 03:25:04;;;;;;;3.65;0.80;;;;;;;;;;4895099;29;20063;-56
2021/06/12 03:27:30;;;;;;;2.22;0.60;;;;;;;;;;4893409;29;20048;-56
2021/06/12 03:29:56;;;;;;;3.67;0.63;;;;;;;;;;4894544;29;20139;-55
2021/06/12 03:32:23;;;;;;;6.03;0.70;;;;;;;;;;4894686;29;20051;-54
2021/06/12 03:34:50;;;;;;;3.92;0.82;;;;;;;;;;4893664;29;20044;-54
2021/06/12 03:37:16;;;;;;;6.22;1.00;;;;;;;;;;4893696;29;20885;-56
2021/06/12 03:39:42;;;;;;;6.00;1.45;;;;;;;;;;4892904;29;20043;-55
2021/06/12 03:42:08;;;;;;;4.22;2.10;;;;;;;;;;4895680;29;20070;-56
2021/06/12 03:44:34;;;;;;;5.38;1.20;;;;;;;;;;4876725;29;20040;-55
2021/06/12 03:47:00;;;;;;;5.97;0.90;;;;;;;;;;4894218;29;20039;-56
2021/06/12 03:49:26;;;;;;;3.97;1.30;;;;;;;;;;4893064;29;20551;-55
2021/06/12 03:51:52;;;;;;;5.70;1.27;;;;;;;;;;4894584;29;20043;-56
2021/06/12 03:54:18;;;;;;;4.63;1.48;;;;;;;;;;4893935;29;20095;-55
2021/06/12 03:56:44;;;;;;;4.95;1.80;;;;;;;;;;4895795;29;20048;-56
2021/06/12 03:59:10;;;;;;;5.65;1.08;;;;;;;;;;4894516;29;20085;-54
2021/06/12 04:01:37;;;;;;;3.47;1.20;;;;;;;;;;4893880;29;20040;-56
2021/06/12 04:04:02;;;;;;;5.20;1.67;;;;;;;;;;4895495;29;20051;-54
2021/06/12 04:06:28;;;;;;;4.30;1.80;;;;;;;;;;4891916;29;20139;-55
2021/06/12 04:08:54;;;;;;;3.58;1.05;;;;;;;;;;4894546;29;20127;-56
2021/06/12 04:11:20;;;;;;;3.72;1.15;;;;;;;;;;4893444;29;20072;-54
2021/06/12 04:13:46;;;;;;;4.78;1.02;;;;;;;;;;4878308;29;20059;-55
2021/06/12 04:16:12;;;;;;;3.75;1.00;;;;;;;;;;4893355;29;20690;-55
2021/06/12 04:18:38;;;;;;;3.20;0.90;;;;;;;;;;4876059;29;20537;-54
2021/06/12 04:21:04;;;;;;;4.15;1.17;;;;;;;;;;4894230;29;20237;-56
2021/06/12 04:23:31;;;;;;;3.90;1.20;;;;;;;;;;4893249;29;20170;-57
2021/06/12 04:25:57;;;;;;;4.47;0.77;;;;;;;;;;4893408;29;20071;-56
2021/06/12 04:28:22;;;;;;;3.05;0.80;;;;;;;;;;4894446;29;20185;-58
2021/06/12 04:30:50;;;;;;;4.50;0.68;;;;;;;;;;4892143;29;20500;-55
2021/06/12 04:33:16;;;;;;;3.25;0.90;;;;;;;;;;4894507;29;20086;-55
2021/06/12 04:35:42;;;;;;;3.08;0.90;;;;;;;;;;4892703;29;21076;-56
2021/06/12 04:38:08;;;;;;;4.03;0.90;;;;;;;;;;4894888;29;20280;-56
2021/06/12 04:40:35;;;;;;;4.63;1.00;;;;;;;;;;4893979;29;20687;-56
2021/06/12 04:43:01;;;;;;;5.35;1.20;;;;;;;;;;4894748;29;20456;-56
2021/06/12 04:45:27;;;;;;;5.57;1.88;;;;;;;;;;4892358;29;20105;-57
2021/06/12 04:47:53;;;;;;;5.57;1.45;;;;;;;;;;4884110;29;20487;-55
2021/06/12 04:50:19;;;;;;;4.82;1.48;;;;;;;;;;4894634;29;20734;-56
2021/06/12 04:52:45;;;;;;;3.90;1.33;;;;;;;;;;4896033;29;20051;-55
2021/06/12 04:55:11;;;;;;;4.45;1.30;;;;;;;;;;4894257;29;20047;-56
2021/06/12 04:57:38;;;;;;;3.95;1.42;;;;;;;;;;4893359;29;20317;-57
2021/06/12 05:00:08;;;;;;;4.85;1.10;;;;;;;;;;4894465;29;20282;-58
2021/06/12 05:02:34;;;;;;;4.50;1.00;;;;;;;;;;4893423;29;20115;-57
2021/06/12 05:05:00;;;;;;;4.07;1.20;;;;;;;;;;4894025;29;20767;-56
2021/06/12 05:07:25;;;;;;;6.22;1.10;;;;;;;;;;4892974;29;20162;-57
2021/06/12 05:09:51;;;;;;;5.03;1.20;;;;;;;;;;4911780;29;20480;-55
2021/06/12 05:12:17;;;;;;;3.20;0.98;;;;;;;;;;4909706;29;20040;-56
2021/06/12 05:14:45;;;;;;;2.83;1.00;;;;;;;;;;4909837;29;20051;-57
2021/06/12 05:17:14;;;;;;;4.38;1.45;;;;;;;;;;4912280;29;20040;-58
2021/06/12 05:19:40;;;;;;;3.25;1.50;;;;;;;;;;4912914;29;20118;-58
2021/06/12 05:22:06;;;;;;;3.88;1.38;;;;;;;;;;4913469;29;20035;-55
2021/06/12 05:24:34;;;;;;;3.67;1.30;;;;;;;;;;4900384;29;20043;-58
2021/06/12 05:26:59;;;;;;;3.40;1.30;;;;;;;;;;4892853;29;20052;-57
2021/06/12 05:29:26;;;;;;;4.47;1.05;;;;;;;;;;4912402;29;20100;-55
2021/06/12 05:31:52;;;;;;;4.28;0.93;;;;;;;;;;4899470;29;20123;-56
2021/06/12 05:34:18;;;;;;;4.03;1.17;;;;;;;;;;4911180;29;20135;-57
2021/06/12 05:36:44;;;;;;;4.97;1.35;;;;;;;;;;4897721;29;20127;-55
2021/06/12 05:39:10;;;;;;;5.72;2.40;;;;;;;;;;4912288;29;20541;-56
2021/06/12 05:41:38;;;;;;;8.95;1.40;;;;;;;;;;4912563;29;20075;-56
2021/06/12 05:44:05;;;;;;;3.80;0.90;;;;;;;;;;4912700;29;20044;-53
2021/06/12 05:46:30;;;;;;;4.03;0.93;;;;;;;;;;4910528;29;20085;-56
2021/06/12 05:48:56;;;;;;;4.85;0.90;;;;;;;;;;4912047;29;21009;-55
2021/06/12 05:51:22;;;;;;;2.53;0.73;;;;;;;;;;4914156;29;20028;-55
2021/06/12 05:53:48;;;;;;;5.22;1.10;;;;;;;;;;4913143;29;20039;-55
2021/06/12 05:56:13;;;;;;;4.20;0.85;;;;;;;;;;4911426;29;20063;-55
2021/06/12 05:58:39;;;;;;;3.33;0.75;;;;;;;;;;4910711;29;20528;-54
2021/06/12 06:01:08;;;;;;;2.75;0.70;;;;;;;;;;4911287;29;20047;-54
2021/06/12 06:03:34;;;;;;;3.70;1.10;;;;;;;;;;4911221;29;20163;-56
2021/06/12 06:06:00;;;;;;;4.53;0.80;;;;;;;;;;4901570;29;20516;-56
2021/06/12 06:08:26;;;;;;;3.13;0.80;;;;;;;;;;4900491;29;20055;-55
2021/06/12 06:10:52;;;;;;;5.40;1.00;;;;;;;;;;4901086;29;20048;-59
2021/06/12 06:13:18;;;;;;;5.00;1.30;;;;;;;;;;4898441;29;20048;-56
2021/06/12 06:15:44;;;;;;;8.23;1.63;;;;;;;;;;4900749;29;20044;-55
2021/06/12 06:18:10;;;;;;;7.68;1.30;;;;;;;;;;4902091;29;20489;-57
2021/06/12 06:20:36;;;;;;;4.95;1.42;;;;;;;;;;4901487;29;20078;-56
2021/06/12 06:23:01;;;;;;;4.80;1.13;;;;;;;;;;4902396;29;20469;-57
2021/06/12 06:25:27;;;;;;;4.82;1.10;;;;;;;;;;4899670;29;20056;-53
2021/06/12 06:27:53;;;;;;;3.70;1.20;;;;;;;;;;4901995;29;20044;-56
2021/06/12 06:30:19;;;;;;;3.97;1.10;;;;;;;;;;4904119;29;20035;-56
2021/06/12 06:32:45;;;;;;;5.00;1.40;;;;;;;;;;4904406;29;20046;-56
2021/06/12 06:35:14;;;;;;;6.75;1.60;;;;;;;;;;4905100;29;20043;-54
2021/06/12 06:37:40;;;;;;;2.95;0.98;;;;;;;;;;4904849;29;20056;-54
2021/06/12 06:40:06;;;;;;;4.05;1.10;;;;;;;;;;4905325;29;20048;-55
2021/06/12 06:42:32;;;;;;;3.58;1.10;;;;;;;;;;4903615;29;20100;-56
2021/06/12 06:44:57;;;;;;;5.85;1.10;;;;;;;;;;4903975;29;20080;-55
2021/06/12 06:47:23;;;;;;;4.13;1.15;;;;;;;;;;4903267;29;20047;-57
2021/06/12 06:49:49;;;;;;;7.75;1.20;;;;;;;;;;4904169;29;20065;-55
2021/06/12 06:52:15;;;;;;;7.30;1.40;;;;;;;;;;4903996;29;20052;-55
2021/06/12 06:54:42;;;;;;;5.60;1.45;;;;;;;;;;4903016;29;20058;-53
2021/06/12 06:57:08;;;;;;;3.35;1.20;;;;;;;;;;4903667;29;20040;-56
2021/06/12 06:59:34;;;;;;;6.10;1.50;;;;;;;;;;4883881;29;20036;-56
2021/06/12 07:02:00;;;;;;;3.95;1.30;;;;;;;;;;4904615;29;20180;-56
2021/06/12 07:04:26;;;;;;;4.78;1.20;;;;;;;;;;4904572;29;20051;-54
2021/06/12 07:06:52;;;;;;;6.35;1.20;;;;;;;;;;4901857;29;20055;-55
2021/06/12 07:09:17;;;;;;;6.65;1.50;;;;;;;;;;4902405;29;20029;-54
2021/06/12 07:11:43;;;;;;;5.43;1.30;;;;;;;;;;4904020;29;20072;-55
2021/06/12 07:14:09;;;;;;;4.88;1.40;;;;;;;;;;4905710;29;20060;-53
2021/06/12 07:16:35;;;;;;;4.95;1.50;;;;;;;;;;4903660;29;20091;-54
2021/06/12 07:19:01;;;;;;;7.82;1.55;;;;;;;;;;4887757;29;20100;-56
2021/06/12 07:21:27;;;;;;;5.47;1.52;;;;;;;;;;4902404;29;20111;-55
2021/06/12 07:23:53;;;;;;;10.27;2.13;;;;;;;;;;4904048;29;20043;-56
2021/06/12 07:26:19;;;;;;;8.45;1.90;;;;;;;;;;4902136;29;20275;-53
2021/06/12 07:28:45;;;;;;;9.18;2.10;;;;;;;;;;4902775;29;20043;-56
2021/06/12 07:31:11;;;;;;;6.15;1.90;;;;;;;;;;4901127;29;20068;-56
2021/06/12 07:33:36;;;;;;;6.88;1.98;;;;;;;;;;4902611;29;22544;-55
2021/06/12 07:36:03;;;;;;;7.53;1.85;;;;;;;;;;4902474;29;20047;-54
2021/06/12 07:38:29;;;;;;;7.03;1.67;;;;;;;;;;4903005;29;20047;-56
2021/06/12 07:40:55;;;;;;;8.88;1.65;;;;;;;;;;4903223;29;20040;-56
2021/06/12 07:43:21;;;;;;;9.15;1.90;;;;;;;;;;4903031;29;20036;-53
2021/06/12 07:45:47;;;;;;;6.00;1.73;;;;;;;;;;4903604;29;20126;-55
2021/06/12 07:48:14;;;;;;;4.20;1.60;;;;;;;;;;4906375;29;20489;-54
2021/06/12 07:50:40;;;;;;;5.13;1.77;;;;;;;;;;4903746;29;20059;-55
2021/06/12 07:53:06;;;;;;;6.72;1.98;;;;;;;;;;4902785;29;20057;-56
2021/06/12 07:55:33;;;;;;;4.97;1.92;;;;;;;;;;4902205;29;20043;-56
2021/06/12 07:57:59;;;;;;;5.80;1.70;;;;;;;;;;4901968;29;20632;-53
2021/06/12 08:00:25;;;;;;;4.95;1.60;;;;;;;;;;4901548;29;20042;-54
2021/06/12 08:02:51;;;;;;;8.95;1.92;;;;;;;;;;4903364;29;20040;-54
2021/06/12 08:05:17;;;;;;;6.22;1.77;;;;;;;;;;4902500;29;20067;-55
2021/06/12 08:07:42;;;;;;;5.88;1.80;;;;;;;;;;4902327;29;20036;-56
2021/06/12 08:10:08;;;;;;;12.20;2.17;;;;;;;;;;4901441;29;20048;-56
2021/06/12 08:12:36;;;;;;;9.30;2.10;;;;;;;;;;4903617;29;20054;-56
2021/06/12 08:15:02;;;;;;;6.45;1.90;;;;;;;;;;4901536;29;20059;-53
2021/06/12 08:17:28;;;;;;;6.28;2.00;;;;;;;;;;4900612;29;20078;-56
2021/06/12 08:19:54;;;;;;;6.25;2.00;;;;;;;;;;4902191;29;20568;-53
2021/06/12 08:22:20;;;;;;;7.28;1.95;;;;;;;;;;4898143;29;20977;-58
2021/06/12 08:24:46;;;;;;;7.70;2.35;;;;;;;;;;4901819;29;20035;-57
2021/06/12 08:27:12;;;;;;;5.03;1.80;;;;;;;;;;4902330;29;20138;-56
2021/06/12 08:29:38;;;;;;;5.10;2.17;;;;;;;;;;4900914;29;21031;-55
2021/06/12 08:32:04;;;;;;;5.00;1.85;;;;;;;;;;4903419;29;20126;-58
2021/06/12 08:34:30;;;;;;;4.90;2.03;;;;;;;;;;4901933;29;20099;-59
2021/06/12 08:36:56;;;;;;;6.10;2.00;;;;;;;;;;4902743;29;20111;-58
2021/06/12 08:39:22;;;;;;;6.45;2.05;;;;;;;;;;4885951;29;20583;-55
2021/06/12 08:41:48;;;;;;;8.10;2.42;;;;;;;;;;4904408;29;20667;-58
2021/06/12 08:44:14;;;;;;;5.75;2.10;;;;;;;;;;4902723;29;20047;-57
2021/06/12 08:46:40;;;;;;;6.30;2.67;;;;;;;;;;4901568;29;20166;-56
2021/06/12 08:49:06;;;;;;;5.55;2.20;;;;;;;;;;4903707;29;20119;-57
2021/06/12 08:51:33;;;;;;;8.10;2.30;;;;;;;;;;4902648;29;20054;-53
2021/06/12 08:53:59;;;;;;;12.18;2.58;;;;;;;;;;4901584;29;20065;-57
2021/06/12 08:56:25;;;;;;;6.60;2.30;;;;;;;;;;4903064;29;20040;-55
2021/06/12 08:58:51;;;;;;;8.35;2.40;;;;;;;;;;4903266;29;20070;-57
2021/06/12 09:01:17;;;;;;;8.43;2.22;;;;;;;;;;4884020;29;20565;-56
2021/06/12 09:03:44;;;;;;;6.68;2.13;;;;;;;;;;4904223;29;20044;-57
2021/06/12 09:06:12;;;;;;;8.15;2.20;;;;;;;;;;4884496;29;20051;-57
2021/06/12 09:08:39;;;;;;;7.00;2.17;;;;;;;;;;4901235;29;20047;-56
2021/06/12 09:11:05;;;;;;;6.30;2.58;;;;;;;;;;4902397;29;20119;-58
2021/06/12 09:13:42;;;;;;;8.50;2.40;;;;;;;;;;4899782;29;20130;-57
2021/06/12 09:16:20;;;;;;;7.18;2.50;;;;;;;;;;4902416;29;20604;-53
2021/06/12 09:18:46;;;;;;;5.32;2.38;;;;;;;;;;4901352;29;20099;-58
2021/06/12 09:21:21;;;;;;;5.35;2.25;;;;;;;;;;4904593;29;20075;-56
2021/06/12 09:23:47;;;;;;;5.57;2.30;;;;;;;;;;4900479;29;20054;-57
2021/06/12 09:26:13;;;;;;;7.95;2.33;;;;;;;;;;4902039;29;20051;-58
2021/06/12 09:28:46;;;;;;;6.30;2.33;;;;;;;;;;4901384;29;20050;-56
2021/06/12 09:31:20;;;;;;;7.00;2.38;;;;;;;;;;4902709;29;20427;-57
2021/06/12 09:33:46;;;;;;;5.78;2.20;;;;;;;;;;4900491;29;20044;-57
2021/06/12 09:36:12;;;;;;;5.88;1.98;;;;;;;;;;4902711;29;20194;-55
2021/06/12 09:38:38;;;;;;;7.45;2.10;;;;;;;;;;4901141;29;20048;-56
2021/06/12 09:41:23;;;;;;;4.53;2.00;;;;;;;;;;4902559;29;20046;-56
2021/06/12 09:43:49;;;;;;;5.63;2.05;;;;;;;;;;4899665;29;20118;-57
2021/06/12 09:46:31;;;;;;;5.30;2.00;;;;;;;;;;4901697;29;20059;-57
2021/06/12 09:48:57;;;;;;;4.88;2.10;;;;;;;;;;4899494;29;20147;-55
2021/06/12 09:51:23;;;;;;;5.85;1.80;;;;;;;;;;4899034;29;20039;-56
2021/06/12 09:53:50;;;;;;;6.80;2.17;;;;;;;;;;4900834;29;20934;-57
2021/06/12 09:56:16;;;;;;;5.90;2.13;;;;;;;;;;4899649;29;20044;-57
2021/06/12 09:58:42;;;;;;;7.57;1.98;;;;;;;;;;4900293;29;20048;-57
2021/06/12 10:01:08;;;;;;;7.50;2.33;;;;;;;;;;4902107;29;20041;-56
2021/06/12 10:03:34;;;;;;;4.75;2.33;;;;;;;;;;4901648;29;20521;-56
2021/06/12 10:06:20;;;;;;;6.38;2.00;;;;;;;;;;4907147;29;21046;-56
2021/06/12 10:08:49;;;;;;;4.72;2.13;;;;;;;;;;4904441;29;20079;-55
2021/06/12 10:11:15;;;;;;;6.32;2.10;;;;;;;;;;4905171;29;20036;-56
2021/06/12 10:13:45;;;;;;;6.25;1.95;;;;;;;;;;4903452;29;20599;-58
2021/06/12 10:16:11;;;;;;;7.30;2.33;;;;;;;;;;4904257;29;20131;-57
2021/06/12 10:18:39;;;;;;;8.10;2.65;;;;;;;;;;4903256;29;20091;-57
2021/06/12 10:21:05;;;;;;;10.18;2.47;;;;;;;;;;4904284;29;20048;-56
2021/06/12 10:23:31;;;;;;;5.63;2.42;;;;;;;;;;4886072;29;20044;-57
2021/06/12 10:25:57;;;;;;;8.13;2.75;;;;;;;;;;4890218;29;20079;-56
2021/06/12 10:28:23;;;;;;;9.48;2.67;;;;;;;;;;4903715;29;20469;-56
2021/06/12 10:30:50;;;;;;;5.93;2.35;;;;;;;;;;4904285;29;20043;-56
2021/06/12 10:33:19;;;;;;;8.48;2.60;;;;;;;;;;4903488;29;20600;-55
2021/06/12 10:35:45;;;;;;;6.22;2.45;;;;;;;;;;4903985;29;20052;-57
2021/06/12 10:38:15;;;;;;;7.15;2.30;;;;;;;;;;4904781;29;20497;-56
2021/06/12 10:40:41;;;;;;;8.25;3.15;;;;;;;;;;4903173;29;20493;-57
2021/06/12 10:43:08;;;;;;;5.93;2.38;;;;;;;;;;4904440;29;20103;-56
2021/06/12 10:45:34;;;;;;;6.30;2.75;;;;;;;;;;4902010;29;20052;-56
2021/06/12 10:48:00;;;;;;;6.82;2.63;;;;;;;;;;4903965;29;20467;-57
2021/06/12 10:50:30;;;;;;;6.93;2.65;;;;;;;;;;4902807;29;20048;-57
2021/06/12 10:53:14;;;;;;;6.43;2.20;;;;;;;;;;4904232;29;20667;-56
2021/06/12 10:55:43;;;;;;;6.78;2.17;;;;;;;;;;4904002;29;20159;-57
2021/06/12 10:58:28;;;;;;;5.05;1.95;;;;;;;;;;4903619;29;20058;-57
2021/06/12 11:01:06;;;;;;;4.72;2.00;;;;;;;;;;4903684;29;22145;-54
2021/06/12 11:09:14;;;;;;;6.07;1.85;;;;;;;;;;4903724;29;20059;-57
2021/06/12 11:11:40;;;;;;;5.95;2.00;;;;;;;;;;4903752;29;20047;-56
2021/06/12 11:14:21;;;;;;;5.35;1.73;;;;;;;;;;4903628;29;20157;-56
2021/06/12 11:17:08;;;;;;;6.13;1.70;;;;;;;;;;4904345;29;20821;-56
2021/06/12 11:19:39;;;;;;;8.32;1.98;;;;;;;;;;4904091;29;20749;-57
2021/06/12 11:22:24;;;;;;;6.40;2.28;;;;;;;;;;4902816;29;20051;-56
2021/06/12 11:25:01;;;;;;;5.15;1.75;;;;;;;;;;4902121;29;20071;-57
2021/06/12 11:27:28;;;;;;;7.82;1.90;;;;;;;;;;4903714;29;20059;-54
2021/06/12 11:30:12;;;;;;;4.70;1.35;;;;;;;;;;4904544;29;20049;-57
2021/06/12 11:32:39;;;;;;;8.15;1.50;;;;;;;;;;4902285;29;20048;-57
2021/06/12 11:35:05;;;;;;;5.82;1.45;;;;;;;;;;4903621;29;20050;-56
2021/06/12 11:37:31;;;;;;;6.65;1.30;;;;;;;;;;4903488;29;20044;-55
2021/06/12 11:39:58;;;;;;;5.40;1.00;;;;;;;;;;4903924;29;20047;-57
2021/06/12 11:42:25;;;;;;;4.28;1.10;;;;;;;;;;4904242;29;20040;-56
2021/06/12 11:44:51;;;;;;;3.05;1.10;;;;;;;;;;4903376;29;20125;-56
2021/06/12 11:47:26;;;;;;;3.60;1.63;;;;;;;;;;4903081;29;20317;-56
2021/06/12 11:49:52;;;;;;;3.80;1.10;;;;;;;;;;4901651;29;20128;-58
2021/06/12 11:52:18;;;;;;;3.70;1.30;;;;;;;;;;4904448;29;20060;-56
2021/06/12 11:54:44;;;;;;;5.70;1.33;;;;;;;;;;4902061;29;20621;-57
2021/06/12 11:57:10;;;;;;;3.35;1.20;;;;;;;;;;4903779;29;20052;-58
2021/06/12 11:59:36;;;;;;;3.38;1.10;;;;;;;;;;4901139;29;20095;-58
2021/06/12 12:02:07;;;;;;;3.63;1.20;;;;;;;;;;4902094;29;20039;-57
2021/06/12 12:04:38;;;;;;;5.38;1.20;;;;;;;;;;4902290;29;20581;-58
2021/06/12 12:07:05;;;;;;;4.55;1.00;;;;;;;;;;4902999;29;20148;-56
2021/06/12 12:09:40;;;;;;;5.57;1.10;;;;;;;;;;4900597;29;20067;-59
2021/06/12 12:12:07;;;;;;;3.15;1.10;;;;;;;;;;4902418;29;20639;-58
2021/06/12 12:14:36;;;;;;;3.85;0.90;;;;;;;;;;4900606;29;20228;-57
2021/06/12 12:17:02;;;;;;;6.20;1.20;;;;;;;;;;4886876;29;20052;-56
2021/06/12 12:19:28;;;;;;;4.18;1.10;;;;;;;;;;4902563;29;20437;-54
2021/06/12 12:22:01;;;;;;;3.78;1.00;;;;;;;;;;4902285;29;20039;-58
2021/06/12 12:24:32;;;;;;;4.07;0.90;;;;;;;;;;4901741;29;20448;-56
2021/06/12 12:27:04;;;;;;;4.90;1.10;;;;;;;;;;4902020;29;20082;-56
2021/06/12 12:29:32;;;;;;;3.72;1.05;;;;;;;;;;4902109;29;20131;-57
2021/06/12 12:32:01;;;;;;;3.92;1.00;;;;;;;;;;4902615;29;20388;-55
2021/06/12 12:34:38;;;;;;;2.72;1.00;;;;;;;;;;4900812;29;20040;-58
2021/06/12 12:37:09;;;;;;;2.80;0.80;;;;;;;;;;4904583;29;20584;-58
2021/06/12 12:39:42;;;;;;;4.78;0.90;;;;;;;;;;4901200;29;20135;-58
2021/06/12 12:42:09;;;;;;;5.20;0.90;;;;;;;;;;4901198;29;20036;-57
2021/06/12 12:44:35;;;;;;;4.45;0.95;;;;;;;;;;4899845;29;22102;-58
2021/06/12 12:47:01;;;;;;;4.00;1.00;;;;;;;;;;4900671;29;20040;-57
2021/06/12 12:49:28;;;;;;;3.00;0.82;;;;;;;;;;4901469;29;20047;-58
2021/06/12 12:51:56;;;;;;;5.50;1.00;;;;;;;;;;4901173;29;20036;-58
2021/06/12 12:54:21;;;;;;;5.18;1.05;;;;;;;;;;4900301;29;20048;-59
2021/06/12 12:56:49;;;;;;;6.82;1.00;;;;;;;;;;4903484;29;20039;-57
2021/06/12 12:59:25;;;;;;;3.40;0.80;;;;;;;;;;4900657;29;20079;-61
2021/06/12 13:01:55;;;;;;;2.60;0.85;;;;;;;;;;4900661;29;20066;-58
2021/06/12 13:04:31;;;;;;;5.53;1.10;;;;;;;;;;4898037;29;20183;-55
2021/06/12 13:07:23;;;;;;;3.92;0.98;;;;;;;;;;4901457;29;20790;-58
2021/06/12 13:09:58;;;;;;;4.15;1.13;;;;;;;;;;4870463;29;20047;-58
2021/06/12 13:12:24;;;;;;;3.67;1.60;;;;;;;;;;4899846;29;20130;-59
2021/06/12 13:14:57;;;;;;;8.57;1.58;;;;;;;;;;4898583;29;20052;-55
2021/06/12 13:17:24;;;;;;;6.20;1.20;;;;;;;;;;4899630;29;20825;-54
2021/06/12 13:19:51;;;;;;;3.53;1.45;;;;;;;;;;4900487;29;20143;-58
2021/06/12 13:22:43;;;;;;;5.20;1.10;;;;;;;;;;4889761;29;20115;-54
2021/06/12 13:25:12;;;;;;;6.80;1.15;;;;;;;;;;4895369;29;20505;-56
2021/06/12 13:27:48;;;;;;;5.72;0.93;;;;;;;;;;4899089;29;20583;-57
2021/06/12 13:30:17;;;;;;;4.68;1.10;;;;;;;;;;4900625;29;20165;-57
2021/06/12 13:33:04;;;;;;;4.75;1.10;;;;;;;;;;4899773;29;20782;-61
2021/06/12 13:35:31;;;;;;;4.43;0.93;;;;;;;;;;4886288;29;20103;-59
2021/06/12 13:38:07;;;;;;;5.80;1.45;;;;;;;;;;4904146;29;20036;-61
2021/06/12 13:40:34;;;;;;;3.47;0.90;;;;;;;;;;4904861;29;20051;-61
2021/06/12 13:43:00;;;;;;;5.43;1.00;;;;;;;;;;4905047;29;20090;-61
2021/06/12 13:45:26;;;;;;;5.05;1.02;;;;;;;;;;4904079;29;20184;-61
2021/06/12 13:47:52;;;;;;;7.20;1.20;;;;;;;;;;4906369;29;20165;-59
2021/06/12 13:50:18;;;;;;;4.28;1.00;;;;;;;;;;4903065;29;20148;-59
2021/06/12 13:52:44;;;;;;;3.90;0.82;;;;;;;;;;4904928;29;20040;-59
2021/06/12 13:55:12;;;;;;;7.00;0.82;;;;;;;;;;4904792;29;20595;-59
2021/06/12 13:57:39;;;;;;;4.40;1.00;;;;;;;;;;4904793;29;20126;-58
2021/06/12 14:00:06;;;;;;;4.88;0.95;;;;;;;;;;4905882;29;20091;-60
2021/06/12 14:02:32;;;;;;;4.38;0.90;;;;;;;;;;4904540;29;20036;-60
2021/06/12 14:04:58;;;;;;;4.15;1.08;;;;;;;;;;4906887;29;20048;-61
2021/06/12 14:07:24;;;;;;;4.93;1.10;;;;;;;;;;4905354;29;20048;-60
2021/06/12 14:09:50;;;;;;;7.70;1.10;;;;;;;;;;4906683;29;20044;-61
2021/06/12 14:12:16;;;;;;;8.13;1.27;;;;;;;;;;4904160;29;20035;-60
2021/06/12 14:14:41;;;;;;;13.90;1.27;;;;;;;;;;4904210;29;20201;-57
2021/06/12 14:17:07;;;;;;;18.17;1.70;;;;;;;;;;4905419;29;20489;-57
2021/06/12 14:19:34;;;;;;;5.13;1.27;;;;;;;;;;4905866;29;20110;-58
2021/06/12 14:22:00;;;;;;;13.98;1.20;;;;;;;;;;4907016;29;20140;-57
2021/06/12 14:24:26;;;;;;;11.63;1.35;;;;;;;;;;4904445;29;20047;-59
2021/06/12 14:26:53;;;;;;;3.85;0.90;;;;;;;;;;4890429;29;20128;-58
2021/06/12 14:29:19;;;;;;;5.22;0.98;;;;;;;;;;4904754;29;20050;-58
2021/06/12 14:31:46;;;;;;;7.28;1.02;;;;;;;;;;4906547;29;20055;-58
2021/06/12 14:34:12;;;;;;;3.70;0.95;;;;;;;;;;4904567;29;20043;-57
2021/06/12 14:36:38;;;;;;;6.13;0.88;;;;;;;;;;4904911;29;20230;-60
2021/06/12 14:39:07;;;;;;;9.75;1.33;;;;;;;;;;4904247;29;20142;-59
2021/06/12 14:41:37;;;;;;;7.25;1.13;;;;;;;;;;4906556;29;22106;-62
2021/06/12 14:44:03;;;;;;;8.23;1.40;;;;;;;;;;4904433;29;21000;-57
2021/06/12 14:46:28;;;;;;;10.32;1.38;;;;;;;;;;4905127;29;20783;-58
2021/06/12 14:48:54;;;;;;;5.75;1.10;;;;;;;;;;4903595;29;20158;-61
2021/06/12 14:51:20;;;;;;;2.53;0.82;;;;;;;;;;4894945;29;20047;-60